Wednesday, June 20, 2018, 5:14 PM EDT
Back to Local

KMPO, Mt Pocono Pocono Mountains

Location: Pocono Summit, PA, United States Lat: 41.133
Local Time: 5:14 PM EDT (21:14 GMT) Lon: -75.383
Time Zone: US/Eastern Elev: 1915 ft

Show me the last for .
Show Decoded

2018-06-20 16:53 METAR KMPO 202053Z AUTO 02005KT 10SM BKN047 OVC070 22/16 A2986 RMK AO2 SLP103
                 T02220156 58011 =
2018-06-20 15:53 METAR KMPO 201953Z AUTO VRB05KT 10SM OVC080 24/13 A2987 RMK AO2 SLP106 T02390133
                 =
2018-06-20 14:53 METAR KMPO 201853Z AUTO 29007KT 10SM FEW050 OVC080 24/13 A2989 RMK AO2 SLP109
                 T02390133 =
2018-06-20 13:53 METAR KMPO 201753Z AUTO 29004KT 10SM OVC090 23/12 A2989 RMK AO2 SLP112 T02330122
                 10244 20167 58014 =
2018-06-20 12:53 METAR KMPO 201653Z AUTO 22006KT 10SM SCT080 23/12 A2991 RMK AO2 SLP117 T02330122
                 =
2018-06-20 11:53 METAR KMPO 201553Z AUTO 17006KT 10SM CLR 22/13 A2993 RMK AO2 SLP127 T02170128 =
2018-06-20 10:53 METAR KMPO 201453Z AUTO 13005KT 10SM BKN090 19/12 A2994 RMK AO2 SLP130 T01890122
                 58009 =
2018-06-20 09:53 METAR KMPO 201353Z AUTO 12004KT 10SM OVC100 18/13 A2995 RMK AO2 SLP136 T01830128
                 =
2018-06-20 08:53 METAR KMPO 201253Z AUTO VRB04KT 10SM OVC100 17/12 A2997 RMK AO2 SLP141 T01720122
                 =
2018-06-20 07:53 METAR KMPO 201153Z AUTO 09003KT 10SM BKN110 17/12 A2996 RMK AO2 SLP138 T01720117
                 10172 20128 51007 =
2018-06-20 06:53 METAR KMPO 201053Z AUTO 00000KT 10SM FEW110 15/13 A2996 RMK AO2 SLP136 T01500133
                 =
2018-06-20 05:53 METAR KMPO 200953Z AUTO 00000KT 10SM BKN120 14/13 A2995 RMK AO2 SLP135 T01390128
                 =
2018-06-20 04:53 METAR KMPO 200853Z AUTO 00000KT 10SM FEW120 14/12 A2994 RMK AO2 SLP129 T01440122
                 55001 =
2018-06-20 03:53 METAR KMPO 200753Z AUTO 00000KT 10SM CLR 14/12 A2993 RMK AO2 SLP126 T01440117 =
2018-06-20 02:53 METAR KMPO 200653Z AUTO 00000KT 10SM CLR 16/12 A2994 RMK AO2 SLP129 T01560117 =
2018-06-20 01:53 METAR KMPO 200553Z AUTO 34006KT 10SM CLR 16/11 A2994 RMK AO2 SLP130 T01610111
                 10206 20156 57004 =
2018-06-20 00:53 METAR KMPO 200453Z AUTO 34009KT 10SM CLR 17/11 A2995 RMK AO2 SLP132 T01670111
                 402500167 =
2018-06-19 23:53 METAR KMPO 200353Z AUTO 33007KT 10SM CLR 17/11 A2995 RMK AO2 SLP133 T01670106 =
2018-06-19 22:53 METAR KMPO 200253Z AUTO 33005KT 10SM CLR 17/11 A2996 RMK AO2 SLP134 T01720106
                 50010 =
2018-06-19 21:53 METAR KMPO 200153Z AUTO 32004KT 10SM CLR 17/11 A2996 RMK AO2 SLP138 T01670106 =
2018-06-19 20:53 METAR KMPO 200053Z AUTO 30005KT 10SM CLR 18/11 A2994 RMK AO2 SLP130 T01780106 =
2018-06-19 19:53 METAR KMPO 192353Z AUTO 32007KT 10SM CLR 21/10 A2993 RMK AO2 SLP123 T02060100
                 10250 20206 53005 =
2018-06-19 18:53 METAR KMPO 192253Z AUTO 34011KT 10SM CLR 23/10 A2991 RMK AO2 SLP117 T02280100 =
2018-06-19 17:53 METAR KMPO 192153Z AUTO 31010KT 10SM CLR 24/12 A2991 RMK AO2 SLP116 T02390117 =

Support USWX by starting your Amazon purchase here.